Terminal Aerodrome Forecast
Issued by NWS Jacksonville, FL

Home | Current Version | Previous Version | Text Only | Print | Product List | Glossary On
Versions: 1 2 3 4 5 6 7 8 9 10 11 12 13 14 15 16 17 18 19
000
FTUS42 KJAX 261720
TAFJAX
TAF
KJAX 261720Z 2618/2718 15012G16KT P6SM VCSH SCT030 SCT100 BKN250
     FM270000 12008KT P6SM VCSH SCT050 OVC100
     FM270800 09006KT P6SM OVC050
      TEMPO 2708/2712 5SM -RA BR SCT025 OVC050
     FM271200 09010KT P6SM -RA VCTS SCT025CB BKN050 PROB30 2712/2718
      5SM -TSRA SCT015 BKN025CB=

USA.gov is the U.S. government's official web portal to all federal, state and local government web resources and services.